sensor_id;sensor_type;location;lat;lon;timestamp;pressure;altitude;pressure_sealevel;temperature;humidity
6038;BME280;3047;42.600;23.470;2023-03-03T00:00:41;93042.28;;;4.98;100.00
6038;BME280;3047;42.600;23.470;2023-03-03T00:03:11;93042.25;;;5.03;100.00
6038;BME280;3047;42.600;23.470;2023-03-03T00:05:40;93037.22;;;5.06;100.00
6038;BME280;3047;42.600;23.470;2023-03-03T00:08:08;93038.84;;;5.11;100.00
6038;BME280;3047;42.600;23.470;2023-03-03T00:10:35;93044.63;;;5.18;100.00
6038;BME280;3047;42.600;23.470;2023-03-03T00:13:02;93018.88;;;5.07;100.00
6038;BME280;3047;42.600;23.470;2023-03-03T00:15:31;92998.97;;;4.91;100.00
6038;BME280;3047;42.600;23.470;2023-03-03T00:17:57;93032.19;;;5.09;100.00
6038;BME280;3047;42.600;23.470;2023-03-03T00:20:30;93028.88;;;5.07;100.00
6038;BME280;3047;42.600;23.470;2023-03-03T00:23:12;93021.38;;;5.04;100.00
6038;BME280;3047;42.600;23.470;2023-03-03T00:25:42;93030.50;;;5.11;100.00
6038;BME280;3047;42.600;23.470;2023-03-03T00:28:20;93027.13;;;5.16;100.00
6038;BME280;3047;42.600;23.470;2023-03-03T00:30:49;93024.59;;;5.19;100.00
6038;BME280;3047;42.600;23.470;2023-03-03T00:33:23;93028.81;;;5.13;100.00
6038;BME280;3047;42.600;23.470;2023-03-03T00:35:53;93021.38;;;5.07;100.00
6038;BME280;3047;42.600;23.470;2023-03-03T00:38:19;93016.38;;;5.04;100.00
6038;BME280;3047;42.600;23.470;2023-03-03T00:40:47;93018.91;;;5.01;100.00
6038;BME280;3047;42.600;23.470;2023-03-03T00:43:18;93007.25;;;4.96;100.00
6038;BME280;3047;42.600;23.470;2023-03-03T00:45:46;93006.47;;;4.94;100.00
6038;BME280;3047;42.600;23.470;2023-03-03T00:48:39;93000.59;;;4.95;100.00
6038;BME280;3047;42.600;23.470;2023-03-03T00:51:19;93003.91;;;4.99;100.00
6038;BME280;3047;42.600;23.470;2023-03-03T00:53:47;93005.53;;;5.02;100.00
6038;BME280;3047;42.600;23.470;2023-03-03T00:56:14;92996.41;;;4.99;100.00
6038;BME280;3047;42.600;23.470;2023-03-03T00:58:41;92990.59;;;4.95;100.00
6038;BME280;3047;42.600;23.470;2023-03-03T01:01:08;92989.69;;;5.03;100.00
6038;BME280;3047;42.600;23.470;2023-03-03T01:03:36;92988.97;;;4.91;100.00
6038;BME280;3047;42.600;23.470;2023-03-03T01:06:03;92980.63;;;4.91;100.00
6038;BME280;3047;42.600;23.470;2023-03-03T01:08:30;92976.50;;;4.84;100.00
6038;BME280;3047;42.600;23.470;2023-03-03T01:10:59;92974.84;;;4.81;100.00
6038;BME280;3047;42.600;23.470;2023-03-03T01:13:32;92947.53;;;4.58;100.00
6038;BME280;3047;42.600;23.470;2023-03-03T01:16:00;92971.66;;;4.64;100.00
6038;BME280;3047;42.600;23.470;2023-03-03T01:18:28;92965.81;;;4.65;100.00
6038;BME280;3047;42.600;23.470;2023-03-03T01:20:57;92975.03;;;4.60;100.00
6038;BME280;3047;42.600;23.470;2023-03-03T01:23:23;92944.34;;;4.42;100.00
6038;BME280;3047;42.600;23.470;2023-03-03T01:25:50;92890.41;;;4.08;100.00
6038;BME280;3047;42.600;23.470;2023-03-03T01:28:17;92968.38;;;4.57;100.00
6038;BME280;3047;42.600;23.470;2023-03-03T01:30:43;92962.63;;;4.47;100.00
6038;BME280;3047;42.600;23.470;2023-03-03T01:33:10;92968.47;;;4.46;100.00
6038;BME280;3047;42.600;23.470;2023-03-03T01:35:37;92956.78;;;4.45;100.00
6038;BME280;3047;42.600;23.470;2023-03-03T01:38:09;92951.84;;;4.42;100.00
6038;BME280;3047;42.600;23.470;2023-03-03T01:40:36;92961.81;;;4.44;100.00
6038;BME280;3047;42.600;23.470;2023-03-03T01:43:03;92941.03;;;4.39;100.00
6038;BME280;3047;42.600;23.470;2023-03-03T01:45:31;92956.78;;;4.50;100.00
6038;BME280;3047;42.600;23.470;2023-03-03T01:48:08;92949.25;;;4.52;100.00
6038;BME280;3047;42.600;23.470;2023-03-03T01:50:41;92934.38;;;4.38;100.00
6038;BME280;3047;42.600;23.470;2023-03-03T01:53:16;92947.63;;;4.47;100.00
6038;BME280;3047;42.600;23.470;2023-03-03T01:55:45;92930.19;;;4.40;100.00
6038;BME280;3047;42.600;23.470;2023-03-03T01:58:15;92940.91;;;4.50;100.00
6038;BME280;3047;42.600;23.470;2023-03-03T02:00:47;92951.69;;;4.61;100.00
6038;BME280;3047;42.600;23.470;2023-03-03T02:03:16;92946.69;;;4.59;100.00
6038;BME280;3047;42.600;23.470;2023-03-03T02:05:43;92945.88;;;4.56;100.00
6038;BME280;3047;42.600;23.470;2023-03-03T02:08:14;92950.88;;;4.57;100.00
6038;BME280;3047;42.600;23.470;2023-03-03T02:10:42;92949.19;;;4.59;100.00
6038;BME280;3047;42.600;23.470;2023-03-03T02:13:10;92948.31;;;4.65;100.00
6038;BME280;3047;42.600;23.470;2023-03-03T02:15:38;92947.50;;;4.63;100.00
6038;BME280;3047;42.600;23.470;2023-03-03T02:18:07;92955.00;;;4.61;100.00
6038;BME280;3047;42.600;23.470;2023-03-03T02:20:43;92913.50;;;4.37;100.00
6038;BME280;3047;42.600;23.470;2023-03-03T02:23:17;92951.69;;;4.61;100.00
6038;BME280;3047;42.600;23.470;2023-03-03T02:25:59;92959.13;;;4.68;100.00
6038;BME280;3047;42.600;23.470;2023-03-03T02:28:29;92957.50;;;4.66;100.00
6038;BME280;3047;42.600;23.470;2023-03-03T02:30:57;92954.94;;;4.69;100.00
6038;BME280;3047;42.600;23.470;2023-03-03T02:33:25;92953.25;;;4.72;100.00
6038;BME280;3047;42.600;23.470;2023-03-03T02:35:53;92914.22;;;4.55;100.00
6038;BME280;3047;42.600;23.470;2023-03-03T02:38:24;92959.88;;;4.78;100.00
6038;BME280;3047;42.600;23.470;2023-03-03T02:41:01;92952.34;;;4.80;100.00
6038;BME280;3047;42.600;23.470;2023-03-03T02:43:32;92912.47;;;4.66;100.00
6038;BME280;3047;42.600;23.470;2023-03-03T02:46:02;92955.66;;;4.86;100.00
6038;BME280;3047;42.600;23.470;2023-03-03T02:48:29;92955.72;;;4.79;100.00
6038;BME280;3047;42.600;23.470;2023-03-03T02:50:55;92949.88;;;4.78;100.00
6038;BME280;3047;42.600;23.470;2023-03-03T02:53:22;92954.94;;;4.70;100.00
6038;BME280;3047;42.600;23.470;2023-03-03T02:55:49;92930.88;;;4.59;100.00
6038;BME280;3047;42.600;23.470;2023-03-03T02:58:17;92931.72;;;4.56;100.00
6038;BME280;3047;42.600;23.470;2023-03-03T03:00:44;92952.41;;;4.72;100.00
6038;BME280;3047;42.600;23.470;2023-03-03T03:03:12;92948.22;;;4.76;100.00
6038;BME280;3047;42.600;23.470;2023-03-03T03:05:38;92954.88;;;4.77;100.00
6038;BME280;3047;42.600;23.470;2023-03-03T03:08:05;92954.13;;;4.68;100.00
6038;BME280;3047;42.600;23.470;2023-03-03T03:10:32;92924.19;;;4.56;100.00
6038;BME280;3047;42.600;23.470;2023-03-03T03:12:59;92947.50;;;4.63;100.00
6038;BME280;3047;42.600;23.470;2023-03-03T03:15:27;92950.84;;;4.60;100.00
6038;BME280;3047;42.600;23.470;2023-03-03T03:17:53;92945.84;;;4.60;100.00
6038;BME280;3047;42.600;23.470;2023-03-03T03:20:20;92930.88;;;4.56;100.00
6038;BME280;3047;42.600;23.470;2023-03-03T03:22:47;92947.47;;;4.67;100.00
6038;BME280;3047;42.600;23.470;2023-03-03T03:25:14;92947.47;;;4.67;100.00
6038;BME280;3047;42.600;23.470;2023-03-03T03:27:41;92929.16;;;4.62;100.00
6038;BME280;3047;42.600;23.470;2023-03-03T03:30:08;92941.59;;;4.71;100.00
6038;BME280;3047;42.600;23.470;2023-03-03T03:32:36;92917.47;;;4.61;100.00
6038;BME280;3047;42.600;23.470;2023-03-03T03:35:03;92914.19;;;4.59;100.00
6038;BME280;3047;42.600;23.470;2023-03-03T03:37:30;92939.91;;;4.75;100.00
6038;BME280;3047;42.600;23.470;2023-03-03T03:39:57;92939.06;;;4.73;100.00
6038;BME280;3047;42.600;23.470;2023-03-03T03:42:23;92939.13;;;4.70;100.00
6038;BME280;3047;42.600;23.470;2023-03-03T03:44:50;92931.56;;;4.73;100.00
6038;BME280;3047;42.600;23.470;2023-03-03T03:47:17;92932.41;;;4.72;100.00
6038;BME280;3047;42.600;23.470;2023-03-03T03:49:45;92930.75;;;4.71;100.00
6038;BME280;3047;42.600;23.470;2023-03-03T03:52:11;92925.75;;;4.69;100.00
6038;BME280;3047;42.600;23.470;2023-03-03T03:54:38;92932.41;;;4.72;100.00
6038;BME280;3047;42.600;23.470;2023-03-03T03:57:05;92919.88;;;4.74;100.00
6038;BME280;3047;42.600;23.470;2023-03-03T03:59:31;92924.09;;;4.68;100.00
6038;BME280;3047;42.600;23.470;2023-03-03T04:01:58;92919.88;;;4.74;100.00
6038;BME280;3047;42.600;23.470;2023-03-03T04:04:25;92902.38;;;4.72;100.00
6038;BME280;3047;42.600;23.470;2023-03-03T04:06:53;92914.81;;;4.81;100.00
6038;BME280;3047;42.600;23.470;2023-03-03T04:09:19;92919.84;;;4.78;100.00
6038;BME280;3047;42.600;23.470;2023-03-03T04:11:46;92912.31;;;4.80;100.00
6038;BME280;3047;42.600;23.470;2023-03-03T04:14:13;92908.19;;;4.79;100.00
6038;BME280;3047;42.600;23.470;2023-03-03T04:16:39;92916.59;;;4.70;100.00
6038;BME280;3047;42.600;23.470;2023-03-03T04:19:06;92919.97;;;4.66;100.00
6038;BME280;3047;42.600;23.470;2023-03-03T04:21:33;92920.00;;;4.63;100.00
6038;BME280;3047;42.600;23.470;2023-03-03T04:24:01;92914.09;;;4.65;100.00
6038;BME280;3047;42.600;23.470;2023-03-03T04:26:28;92909.97;;;4.66;100.00
6038;BME280;3047;42.600;23.470;2023-03-03T04:28:56;92845.25;;;4.31;100.00
6038;BME280;3047;42.600;23.470;2023-03-03T04:31:23;92914.88;;;4.75;100.00
6038;BME280;3047;42.600;23.470;2023-03-03T04:33:50;92868.41;;;4.51;100.00
6038;BME280;3047;42.600;23.470;2023-03-03T04:36:18;92903.22;;;4.74;100.00
6038;BME280;3047;42.600;23.470;2023-03-03T04:38:44;92839.25;;;4.45;100.00
6038;BME280;3047;42.600;23.470;2023-03-03T04:41:12;92903.91;;;4.85;100.00
6038;BME280;3047;42.600;23.470;2023-03-03T04:43:39;92909.81;;;4.80;100.00
6038;BME280;3047;42.600;23.470;2023-03-03T04:46:06;92913.13;;;4.82;100.00
6038;BME280;3047;42.600;23.470;2023-03-03T04:48:32;92902.28;;;4.81;100.00
6038;BME280;3047;42.600;23.470;2023-03-03T04:50:59;92903.97;;;4.82;100.00
6038;BME280;3047;42.600;23.470;2023-03-03T04:53:26;92904.81;;;4.80;100.00
6038;BME280;3047;42.600;23.470;2023-03-03T04:55:53;92907.31;;;4.80;100.00
6038;BME280;3047;42.600;23.470;2023-03-03T04:58:21;92908.97;;;4.82;100.00
6038;BME280;3047;42.600;23.470;2023-03-03T05:00:53;92910.59;;;4.86;100.00
6038;BME280;3047;42.600;23.470;2023-03-03T05:03:20;92900.53;;;4.89;100.00
6038;BME280;3047;42.600;23.470;2023-03-03T05:05:47;92907.28;;;4.81;100.00
6038;BME280;3047;42.600;23.470;2023-03-03T05:08:14;92902.25;;;4.86;100.00
6038;BME280;3047;42.600;23.470;2023-03-03T05:10:41;92906.53;;;4.76;100.00
6038;BME280;3047;42.600;23.470;2023-03-03T05:13:08;92903.25;;;4.71;100.00
6038;BME280;3047;42.600;23.470;2023-03-03T05:15:36;92913.19;;;4.79;100.00
6038;BME280;3047;42.600;23.470;2023-03-03T05:18:03;92915.69;;;4.76;100.00
6038;BME280;3047;42.600;23.470;2023-03-03T05:20:30;92900.72;;;4.72;100.00
6038;BME280;3047;42.600;23.470;2023-03-03T05:22:57;92913.19;;;4.77;100.00
6038;BME280;3047;42.600;23.470;2023-03-03T05:25:26;92911.56;;;4.75;100.00
6038;BME280;3047;42.600;23.470;2023-03-03T05:27:52;92912.25;;;4.86;100.00
6038;BME280;3047;42.600;23.470;2023-03-03T05:30:19;92915.69;;;4.79;100.00
6038;BME280;3047;42.600;23.470;2023-03-03T05:32:47;92912.41;;;4.69;100.00
6038;BME280;3047;42.600;23.470;2023-03-03T05:35:14;92908.13;;;4.82;100.00
6038;BME280;3047;42.600;23.470;2023-03-03T05:37:41;92886.47;;;4.82;100.00
6038;BME280;3047;42.600;23.470;2023-03-03T05:40:12;92910.56;;;4.88;100.00
6038;BME280;3047;42.600;23.470;2023-03-03T05:42:39;92912.25;;;4.87;100.00
6038;BME280;3047;42.600;23.470;2023-03-03T05:45:06;92918.88;;;4.91;100.00
6038;BME280;3047;42.600;23.470;2023-03-03T05:47:33;92917.25;;;4.86;100.00
6038;BME280;3047;42.600;23.470;2023-03-03T05:50:01;92923.94;;;4.85;100.00
6038;BME280;3047;42.600;23.470;2023-03-03T05:52:28;92919.00;;;4.79;100.00
6038;BME280;3047;42.600;23.470;2023-03-03T05:54:55;92918.97;;;4.84;100.00
6038;BME280;3047;42.600;23.470;2023-03-03T05:57:22;92924.78;;;4.87;100.00
6038;BME280;3047;42.600;23.470;2023-03-03T05:59:48;92876.69;;;4.58;100.00
6038;BME280;3047;42.600;23.470;2023-03-03T06:02:15;92921.34;;;4.96;100.00
6038;BME280;3047;42.600;23.470;2023-03-03T06:04:42;92918.09;;;4.88;100.00
6038;BME280;3047;42.600;23.470;2023-03-03T06:07:10;92920.53;;;4.92;100.00
6038;BME280;3047;42.600;23.470;2023-03-03T06:09:37;92921.41;;;4.88;100.00
6038;BME280;3047;42.600;23.470;2023-03-03T06:12:04;92924.72;;;4.92;100.00
6038;BME280;3047;42.600;23.470;2023-03-03T06:14:31;92861.81;;;4.41;100.00
6038;BME280;3047;42.600;23.470;2023-03-03T06:16:58;92931.47;;;4.84;100.00
6038;BME280;3047;42.600;23.470;2023-03-03T06:19:24;92921.53;;;4.76;100.00
6038;BME280;3047;42.600;23.470;2023-03-03T06:21:52;92933.25;;;4.74;100.00
6038;BME280;3047;42.600;23.470;2023-03-03T06:24:20;92939.13;;;4.70;100.00
6038;BME280;3047;42.600;23.470;2023-03-03T06:26:49;92933.28;;;4.65;100.00
6038;BME280;3047;42.600;23.470;2023-03-03T06:29:16;92932.41;;;4.72;100.00
6038;BME280;3047;42.600;23.470;2023-03-03T06:31:43;92931.59;;;4.70;100.00
6038;BME280;3047;42.600;23.470;2023-03-03T06:34:10;92923.31;;;4.63;100.00
6038;BME280;3047;42.600;23.470;2023-03-03T06:36:36;92942.47;;;4.66;100.00
6038;BME280;3047;42.600;23.470;2023-03-03T06:39:03;92940.88;;;4.59;100.00
6038;BME280;3047;42.600;23.470;2023-03-03T06:41:31;92944.22;;;4.58;100.00
6038;BME280;3047;42.600;23.470;2023-03-03T06:43:58;92943.38;;;4.56;100.00
6038;BME280;3047;42.600;23.470;2023-03-03T06:46:25;92941.72;;;4.56;100.00
6038;BME280;3047;42.600;23.470;2023-03-03T06:48:52;92940.06;;;4.54;100.00
6038;BME280;3047;42.600;23.470;2023-03-03T06:51:22;92921.91;;;4.29;100.00
6038;BME280;3047;42.600;23.470;2023-03-03T06:53:53;92918.59;;;4.30;100.00
6038;BME280;3047;42.600;23.470;2023-03-03T06:56:20;92940.09;;;4.51;100.00
6038;BME280;3047;42.600;23.470;2023-03-03T06:58:49;92955.03;;;4.57;100.00
6038;BME280;3047;42.600;23.470;2023-03-03T07:01:18;92943.34;;;4.60;100.00
6038;BME280;3047;42.600;23.470;2023-03-03T07:03:45;92942.50;;;4.61;100.00
6038;BME280;3047;42.600;23.470;2023-03-03T07:06:20;92941.59;;;4.68;100.00
6038;BME280;3047;42.600;23.470;2023-03-03T07:08:48;92947.44;;;4.70;100.00
6038;BME280;3047;42.600;23.470;2023-03-03T07:11:17;92952.44;;;4.69;100.00
6038;BME280;3047;42.600;23.470;2023-03-03T07:13:46;92944.13;;;4.70;100.00
6038;BME280;3047;42.600;23.470;2023-03-03T07:16:16;92946.66;;;4.64;100.00
6038;BME280;3047;42.600;23.470;2023-03-03T07:18:47;92944.16;;;4.64;100.00
6038;BME280;3047;42.600;23.470;2023-03-03T07:21:18;92918.47;;;4.43;100.00
6038;BME280;3047;42.600;23.470;2023-03-03T07:23:46;92942.44;;;4.69;100.00
6038;BME280;3047;42.600;23.470;2023-03-03T07:26:16;92946.53;;;4.79;100.00
6038;BME280;3047;42.600;23.470;2023-03-03T07:28:44;92953.06;;;4.92;100.00
6038;BME280;3047;42.600;23.470;2023-03-03T07:31:29;92942.97;;;5.02;100.00
6038;BME280;3047;42.600;23.470;2023-03-03T07:33:58;92948.81;;;5.04;100.00
6038;BME280;3047;42.600;23.470;2023-03-03T07:36:30;92934.66;;;5.00;100.00
6038;BME280;3047;42.600;23.470;2023-03-03T07:38:59;92942.97;;;5.03;100.00
6038;BME280;3047;42.600;23.470;2023-03-03T07:41:27;92938.72;;;5.11;100.00
6038;BME280;3047;42.600;23.470;2023-03-03T07:43:54;92937.94;;;5.05;100.00
6038;BME280;3047;42.600;23.470;2023-03-03T07:46:34;92924.81;;;4.81;100.00
6038;BME280;3047;42.600;23.470;2023-03-03T07:49:17;92941.31;;;5.01;100.00
6038;BME280;3047;42.600;23.470;2023-03-03T07:51:46;92933.81;;;5.01;100.00
6038;BME280;3047;42.600;23.470;2023-03-03T07:54:20;92922.16;;;5.00;100.00
6038;BME280;3047;42.600;23.470;2023-03-03T07:56:54;92936.16;;;5.14;100.00
6038;BME280;3047;42.600;23.470;2023-03-03T07:59:24;92940.38;;;5.11;100.00
6038;BME280;3047;42.600;23.470;2023-03-03T08:01:53;92938.63;;;5.17;100.00
6038;BME280;3047;42.600;23.470;2023-03-03T08:04:23;92932.66;;;5.31;100.00
6038;BME280;3047;42.600;23.470;2023-03-03T08:06:52;92927.66;;;5.29;100.00
6038;BME280;3047;42.600;23.470;2023-03-03T08:09:38;92935.03;;;5.41;100.00
6038;BME280;3047;42.600;23.470;2023-03-03T08:12:39;92930.69;;;5.56;100.00
6038;BME280;3047;42.600;23.470;2023-03-03T08:15:16;92927.53;;;5.41;100.00
6038;BME280;3047;42.600;23.470;2023-03-03T08:17:45;92934.13;;;5.49;100.00
6038;BME280;3047;42.600;23.470;2023-03-03T08:20:37;92934.91;;;5.52;100.00
6038;BME280;3047;42.600;23.470;2023-03-03T08:23:04;92929.88;;;5.54;100.00
6038;BME280;3047;42.600;23.470;2023-03-03T08:25:31;92927.25;;;5.64;100.00
6038;BME280;3047;42.600;23.470;2023-03-03T08:27:57;92923.97;;;5.58;100.00
6038;BME280;3047;42.600;23.470;2023-03-03T08:30:24;92929.72;;;5.66;100.00
6038;BME280;3047;42.600;23.470;2023-03-03T08:32:52;92919.78;;;5.60;100.00
6038;BME280;3047;42.600;23.470;2023-03-03T08:35:18;92925.63;;;5.59;100.00
6038;BME280;3047;42.600;23.470;2023-03-03T08:37:45;92918.31;;;5.42;100.00
6038;BME280;3047;42.600;23.470;2023-03-03T08:40:12;92921.78;;;5.35;100.00
6038;BME280;3047;42.600;23.470;2023-03-03T08:42:39;92923.41;;;5.37;100.00
6038;BME280;3047;42.600;23.470;2023-03-03T08:45:06;92928.41;;;5.39;100.00
6038;BME280;3047;42.600;23.470;2023-03-03T08:47:32;92923.28;;;5.46;100.00
6038;BME280;3047;42.600;23.470;2023-03-03T08:50:01;92915.75;;;5.46;100.00
6038;BME280;3047;42.600;23.470;2023-03-03T08:52:27;92929.22;;;5.39;100.00
6038;BME280;3047;42.600;23.470;2023-03-03T08:54:54;92935.91;;;5.39;100.00
6038;BME280;3047;42.600;23.470;2023-03-03T08:57:21;92927.59;;;5.35;100.00
6038;BME280;3047;42.600;23.470;2023-03-03T08:59:47;92921.78;;;5.35;100.00
6038;BME280;3047;42.600;23.470;2023-03-03T09:02:14;92924.13;;;5.45;100.00
6038;BME280;3047;42.600;23.470;2023-03-03T09:04:41;92932.53;;;5.43;100.00
6038;BME280;3047;42.600;23.470;2023-03-03T09:07:09;92866.88;;;5.16;100.00
6038;BME280;3047;42.600;23.470;2023-03-03T09:09:36;92931.44;;;5.62;100.00
6038;BME280;3047;42.600;23.470;2023-03-03T09:12:14;92933.94;;;5.62;100.00
6038;BME280;3047;42.600;23.470;2023-03-03T09:14:41;92927.25;;;5.64;100.00
6038;BME280;3047;42.600;23.470;2023-03-03T09:17:23;92931.34;;;5.72;100.00
6038;BME280;3047;42.600;23.470;2023-03-03T09:19:51;92929.72;;;5.67;100.00
6038;BME280;3047;42.600;23.470;2023-03-03T09:22:23;92928.81;;;5.73;100.00
6038;BME280;3047;42.600;23.470;2023-03-03T09:24:52;92920.44;;;5.76;100.00
6038;BME280;3047;42.600;23.470;2023-03-03T09:27:24;92931.25;;;5.78;100.00
6038;BME280;3047;42.600;23.470;2023-03-03T09:29:53;92932.09;;;5.75;100.00
6038;BME280;3047;42.600;23.470;2023-03-03T09:32:35;92925.38;;;5.79;100.00
6038;BME280;3047;42.600;23.470;2023-03-03T09:38:20;92927.66;;;5.99;100.00
6038;BME280;3047;42.600;23.470;2023-03-03T09:41:00;92922.53;;;6.06;100.00
6038;BME280;3047;42.600;23.470;2023-03-03T09:43:36;92920.75;;;6.14;100.00
6038;BME280;3047;42.600;23.470;2023-03-03T09:46:17;92917.31;;;6.22;100.00
6038;BME280;3047;42.600;23.470;2023-03-03T09:48:51;92912.97;;;6.31;100.00
6038;BME280;3047;42.600;23.470;2023-03-03T09:51:35;92922.69;;;6.53;100.00
6038;BME280;3047;42.600;23.470;2023-03-03T09:54:27;92921.75;;;6.58;100.00
6038;BME280;3047;42.600;23.470;2023-03-03T09:57:04;92916.72;;;6.60;100.00
6038;BME280;3047;42.600;23.470;2023-03-03T09:59:43;92909.06;;;6.67;100.00
6038;BME280;3047;42.600;23.470;2023-03-03T10:02:31;92926.53;;;6.72;100.00
6038;BME280;3047;42.600;23.470;2023-03-03T10:05:11;92920.63;;;6.76;100.00
6038;BME280;3047;42.600;23.470;2023-03-03T10:07:46;92899.00;;;6.69;100.00
6038;BME280;3047;42.600;23.470;2023-03-03T10:10:25;92922.25;;;6.79;100.00
6038;BME280;3047;42.600;23.470;2023-03-03T10:13:06;92922.22;;;6.80;100.00
6038;BME280;3047;42.600;23.470;2023-03-03T10:15:45;92914.56;;;6.89;100.00
6038;BME280;3047;42.600;23.470;2023-03-03T10:18:27;92911.22;;;6.87;100.00
6038;BME280;3047;42.600;23.470;2023-03-03T10:21:02;92911.84;;;7.00;100.00
6038;BME280;3047;42.600;23.470;2023-03-03T10:23:49;92901.84;;;6.99;100.00
6038;BME280;3047;42.600;23.470;2023-03-03T10:26:29;92909.31;;;7.02;100.00
6038;BME280;3047;42.600;23.470;2023-03-03T10:29:20;92904.16;;;7.08;100.00
6038;BME280;3047;42.600;23.470;2023-03-03T10:32:00;92900.31;;;6.90;100.00
6038;BME280;3047;42.600;23.470;2023-03-03T10:34:46;92895.38;;;6.84;100.00
6038;BME280;3047;42.600;23.470;2023-03-03T10:37:19;92897.81;;;6.90;100.00
6038;BME280;3047;42.600;23.470;2023-03-03T10:39:59;92895.94;;;7.01;100.00
6038;BME280;3047;42.600;23.470;2023-03-03T10:42:52;92894.88;;;7.13;100.00
6038;BME280;3047;42.600;23.470;2023-03-03T10:45:34;92891.59;;;7.09;100.00
6038;BME280;3047;42.600;23.470;2023-03-03T10:48:18;92892.28;;;7.17;100.00
6038;BME280;3047;42.600;23.470;2023-03-03T10:50:53;92848.38;;;6.92;100.00
6038;BME280;3047;42.600;23.470;2023-03-03T10:53:26;92888.13;;;7.15;100.00
6038;BME280;3047;42.600;23.470;2023-03-03T10:56:09;92888.19;;;7.13;100.00
6038;BME280;3047;42.600;23.470;2023-03-03T10:58:45;92885.69;;;7.12;100.00
6038;BME280;3047;42.600;23.470;2023-03-03T11:01:28;92879.28;;;6.97;100.00
6038;BME280;3047;42.600;23.470;2023-03-03T11:04:18;92881.75;;;6.99;100.00
6038;BME280;3047;42.600;23.470;2023-03-03T11:06:52;92861.03;;;6.87;100.00
6038;BME280;3047;42.600;23.470;2023-03-03T11:09:32;92805.28;;;6.70;100.00
6038;BME280;3047;42.600;23.470;2023-03-03T11:12:10;92880.56;;;7.18;100.00
6038;BME280;3047;42.600;23.470;2023-03-03T11:14:45;92865.13;;;6.91;100.00
6038;BME280;3047;42.600;23.470;2023-03-03T11:17:18;92865.00;;;6.99;100.00
6038;BME280;3047;42.600;23.470;2023-03-03T11:19:58;92858.09;;;7.09;100.00
6038;BME280;3047;42.600;23.470;2023-03-03T11:22:35;92858.97;;;7.08;100.00
6038;BME280;3047;42.600;23.470;2023-03-03T11:25:15;92856.50;;;7.06;100.00
6038;BME280;3047;42.600;23.470;2023-03-03T11:28:12;92844.13;;;6.96;100.00
6038;BME280;3047;42.600;23.470;2023-03-03T11:31:01;92855.66;;;7.06;100.00
6038;BME280;3047;42.600;23.470;2023-03-03T11:33:34;92862.44;;;7.02;100.00
6038;BME280;3047;42.600;23.470;2023-03-03T11:36:10;92855.75;;;7.01;100.00
6038;BME280;3047;42.600;23.470;2023-03-03T11:38:45;92857.50;;;6.98;100.00
6038;BME280;3047;42.600;23.470;2023-03-03T11:41:22;92858.22;;;7.03;100.00
6038;BME280;3047;42.600;23.470;2023-03-03T11:43:58;92853.94;;;7.09;100.00
6038;BME280;3047;42.600;23.470;2023-03-03T11:46:35;92848.22;;;7.01;100.00
6038;BME280;3047;42.600;23.470;2023-03-03T11:49:05;92839.94;;;6.98;100.00
6038;BME280;3047;42.600;23.470;2023-03-03T11:51:44;92846.69;;;6.94;100.00
6038;BME280;3047;42.600;23.470;2023-03-03T11:54:19;92844.03;;;7.02;100.00
6038;BME280;3047;42.600;23.470;2023-03-03T11:56:47;92847.47;;;6.98;100.00
6038;BME280;3047;42.600;23.470;2023-03-03T11:59:31;92849.88;;;7.01;100.00
6038;BME280;3047;42.600;23.470;2023-03-03T12:02:13;92851.56;;;7.02;100.00
6038;BME280;3047;42.600;23.470;2023-03-03T12:04:48;92850.06;;;6.93;100.00
6038;BME280;3047;42.600;23.470;2023-03-03T12:07:25;92847.66;;;6.87;100.00
6038;BME280;3047;42.600;23.470;2023-03-03T12:10:05;92847.69;;;6.84;100.00
6038;BME280;3047;42.600;23.470;2023-03-03T12:12:42;92843.44;;;6.87;100.00
6038;BME280;3047;42.600;23.470;2023-03-03T12:15:18;92843.44;;;6.87;100.00
6038;BME280;3047;42.600;23.470;2023-03-03T12:18:04;92833.63;;;6.77;100.00
6038;BME280;3047;42.600;23.470;2023-03-03T12:20:39;92844.63;;;6.69;100.00
6038;BME280;3047;42.600;23.470;2023-03-03T12:23:29;92786.66;;;6.37;100.00
6038;BME280;3047;42.600;23.470;2023-03-03T12:26:02;92841.19;;;6.74;100.00
6038;BME280;3047;42.600;23.470;2023-03-03T12:28:35;92849.50;;;6.77;100.00
6038;BME280;3047;42.600;23.470;2023-03-03T12:31:27;92846.09;;;6.80;100.00
6038;BME280;3047;42.600;23.470;2023-03-03T12:34:04;92858.56;;;6.84;100.00
6038;BME280;3047;42.600;23.470;2023-03-03T12:37:05;92862.84;;;6.81;100.00
6038;BME280;3047;42.600;23.470;2023-03-03T12:39:44;92851.09;;;6.81;100.00
6038;BME280;3047;42.600;23.470;2023-03-03T12:42:22;92791.38;;;6.52;100.00
6038;BME280;3047;42.600;23.470;2023-03-03T12:44:55;92859.34;;;6.88;100.00
6038;BME280;3047;42.600;23.470;2023-03-03T12:47:28;92854.25;;;6.91;100.00
6038;BME280;3047;42.600;23.470;2023-03-03T12:50:06;92857.59;;;6.91;100.00
6038;BME280;3047;42.600;23.470;2023-03-03T12:52:43;92856.00;;;6.89;100.00
6038;BME280;3047;42.600;23.470;2023-03-03T12:55:21;92858.47;;;6.90;100.00
6038;BME280;3047;42.600;23.470;2023-03-03T12:57:55;92831.13;;;6.77;100.00
6038;BME280;3047;42.600;23.470;2023-03-03T13:00:29;92845.97;;;6.87;100.00
6038;BME280;3047;42.600;23.470;2023-03-03T13:03:08;92803.69;;;6.66;100.00
6038;BME280;3047;42.600;23.470;2023-03-03T13:05:46;92842.53;;;6.91;100.00
6038;BME280;3047;42.600;23.470;2023-03-03T13:08:28;92841.63;;;6.96;100.00
6038;BME280;3047;42.600;23.470;2023-03-03T13:11:03;92841.53;;;7.00;100.00
6038;BME280;3047;42.600;23.470;2023-03-03T13:13:34;92843.41;;;6.90;100.00
6038;BME280;3047;42.600;23.470;2023-03-03T13:16:10;92846.69;;;6.92;100.00
6038;BME280;3047;42.600;23.470;2023-03-03T13:18:48;92835.13;;;6.85;100.00
6038;BME280;3047;42.600;23.470;2023-03-03T13:21:21;92840.03;;;6.91;100.00
6038;BME280;3047;42.600;23.470;2023-03-03T13:23:53;92835.88;;;6.90;100.00
6038;BME280;3047;42.600;23.470;2023-03-03T13:26:27;92840.72;;;7.00;100.00
6038;BME280;3047;42.600;23.470;2023-03-03T13:29:00;92830.03;;;6.90;100.00
6038;BME280;3047;42.600;23.470;2023-03-03T13:31:32;92811.00;;;6.78;100.00
6038;BME280;3047;42.600;23.470;2023-03-03T13:33:59;92834.78;;;7.04;100.00
6038;BME280;3047;42.600;23.470;2023-03-03T13:36:33;92836.47;;;7.03;100.00